createdAt,value
2023-07-17T00:02:17.076Z,20.20
2023-07-17T00:04:54.095Z,20.20
2023-07-17T00:07:21.972Z,20.20
2023-07-17T00:09:49.827Z,20.30
2023-07-17T00:12:19.583Z,20.30
2023-07-17T00:14:47.662Z,20.30
2023-07-17T00:17:16.414Z,20.20
2023-07-17T00:19:55.214Z,20.20
2023-07-17T00:22:24.319Z,20.30
2023-07-17T00:24:56.109Z,20.20
2023-07-17T00:27:26.325Z,20.30
2023-07-17T00:29:54.541Z,20.30
2023-07-17T00:32:23.381Z,20.40
2023-07-17T00:34:51.299Z,20.30
2023-07-17T00:37:22.599Z,20.40
2023-07-17T00:39:51.493Z,20.40
2023-07-17T00:42:24.556Z,20.50
2023-07-17T00:44:57.001Z,20.50
2023-07-17T00:47:25.864Z,20.50
2023-07-17T00:49:59.373Z,20.50
2023-07-17T00:52:33.445Z,20.50
2023-07-17T00:55:01.686Z,20.60
2023-07-17T00:57:30.784Z,20.60
2023-07-17T00:59:58.881Z,20.50
2023-07-17T01:02:32.148Z,20.50
2023-07-17T01:04:59.613Z,20.50
2023-07-17T01:07:27.294Z,20.60
2023-07-17T01:10:02.269Z,20.60
2023-07-17T01:12:33.432Z,20.60
2023-07-17T01:15:08.193Z,20.50
2023-07-17T01:17:40.175Z,20.50
2023-07-17T01:20:12.011Z,20.40
2023-07-17T01:22:59.511Z,20.40
2023-07-17T01:25:29.451Z,20.40
2023-07-17T01:28:14.516Z,20.30
2023-07-17T01:30:42.607Z,20.30
2023-07-17T01:33:12.992Z,20.30
2023-07-17T01:35:43.746Z,20.30
2023-07-17T01:38:13.971Z,20.30
2023-07-17T01:40:47.061Z,20.40
2023-07-17T01:43:15.012Z,20.40
2023-07-17T01:45:42.263Z,20.30
2023-07-17T01:48:09.706Z,20.30
2023-07-17T01:50:41.610Z,20.20
2023-07-17T01:53:12.029Z,20.20
2023-07-17T01:55:40.105Z,20.20
2023-07-17T01:58:09.359Z,20.20
2023-07-17T02:00:40.314Z,20.10
2023-07-17T02:03:08.075Z,20.10
2023-07-17T02:05:39.279Z,20.00
2023-07-17T02:08:15.986Z,19.90
2023-07-17T02:10:51.355Z,19.80
2023-07-17T02:13:19.470Z,19.80
2023-07-17T02:15:48.080Z,19.70
2023-07-17T02:18:16.128Z,19.60
2023-07-17T02:21:03.516Z,19.60
2023-07-17T02:23:40.072Z,19.50
2023-07-17T02:26:11.793Z,19.50
2023-07-17T02:28:40.436Z,19.50
2023-07-17T02:31:12.239Z,19.40
2023-07-17T02:33:39.864Z,19.40
2023-07-17T02:36:11.175Z,19.40
2023-07-17T02:38:41.106Z,19.30
2023-07-17T02:41:11.933Z,19.30
2023-07-17T02:43:39.285Z,19.30
2023-07-17T02:46:09.457Z,19.20
2023-07-17T02:48:37.292Z,19.20
2023-07-17T02:51:07.417Z,19.20
2023-07-17T02:53:36.110Z,19.20
2023-07-17T02:56:06.213Z,19.20
2023-07-17T02:58:34.192Z,19.30
2023-07-17T03:01:01.955Z,19.20
2023-07-17T03:03:30.114Z,19.20
2023-07-17T03:06:03.399Z,19.30
2023-07-17T03:08:34.199Z,19.30
2023-07-17T03:11:07.332Z,19.30
2023-07-17T03:13:34.785Z,19.40
2023-07-17T03:16:04.941Z,19.50
2023-07-17T03:18:35.203Z,19.50
2023-07-17T03:21:24.137Z,19.60
2023-07-17T03:24:03.374Z,19.70
2023-07-17T03:26:32.115Z,19.80
2023-07-17T03:29:00.191Z,20.00
2023-07-17T03:31:27.455Z,20.10
2023-07-17T03:34:12.044Z,20.20
2023-07-17T03:36:42.482Z,20.40
2023-07-17T03:39:10.407Z,20.50
2023-07-17T03:41:43.350Z,20.50
2023-07-17T03:44:10.757Z,20.80
2023-07-17T03:46:38.747Z,20.80
2023-07-17T03:49:09.076Z,21.00
2023-07-17T03:51:37.217Z,21.20
2023-07-17T03:54:05.261Z,21.20
2023-07-17T03:56:52.682Z,21.20
2023-07-17T03:59:26.679Z,21.20
2023-07-17T04:01:56.904Z,21.20
2023-07-17T04:04:27.166Z,21.20
2023-07-17T04:07:01.271Z,21.30
2023-07-17T04:09:30.610Z,21.40
2023-07-17T04:11:58.367Z,22.30
2023-07-17T04:14:27.807Z,23.70
2023-07-17T04:17:33.363Z,25.40
2023-07-17T04:19:51.217Z,27.00
2023-07-17T04:22:21.184Z,28.70
2023-07-17T04:25:05.550Z,30.10
2023-07-17T04:27:33.332Z,31.50
2023-07-17T04:30:06.665Z,32.50
2023-07-17T04:32:34.934Z,33.50
2023-07-17T04:35:02.686Z,34.30
2023-07-17T04:37:44.866Z,35.10
2023-07-17T04:40:15.566Z,35.60
2023-07-17T04:42:50.414Z,36.40
2023-07-17T04:45:25.671Z,37.30
2023-07-17T04:47:56.624Z,38.00
2023-07-17T04:50:36.136Z,38.50
2023-07-17T04:53:10.221Z,39.00
2023-07-17T04:55:48.132Z,39.40
2023-07-17T04:58:18.492Z,39.80
2023-07-17T05:01:00.808Z,40.30
2023-07-17T05:03:41.028Z,40.70
2023-07-17T05:06:11.472Z,41.30
2023-07-17T05:08:38.800Z,41.80
2023-07-17T05:11:12.944Z,42.30
2023-07-17T05:13:46.791Z,42.90
2023-07-17T05:16:16.886Z,43.30
2023-07-17T05:18:47.379Z,43.60
2023-07-17T05:21:17.787Z,43.90
2023-07-17T05:23:54.114Z,44.30
2023-07-17T05:26:23.441Z,44.80
2023-07-17T05:28:56.542Z,44.70
2023-07-17T05:31:28.130Z,44.50
2023-07-17T05:34:11.319Z,44.40
2023-07-17T05:36:42.076Z,44.80
2023-07-17T05:39:20.567Z,45.10
2023-07-17T05:41:51.520Z,45.20
2023-07-17T05:44:30.537Z,45.70
2023-07-17T05:47:18.513Z,45.90
2023-07-17T05:50:07.785Z,46.40
2023-07-17T05:52:40.416Z,46.60
2023-07-17T05:55:19.468Z,46.80
2023-07-17T05:57:57.373Z,47.10
2023-07-17T06:00:36.927Z,47.30
2023-07-17T06:03:22.085Z,47.50
2023-07-17T06:06:10.322Z,47.90
2023-07-17T06:08:41.675Z,47.80
2023-07-17T06:11:22.806Z,48.00
2023-07-17T06:14:09.854Z,48.40
2023-07-17T06:16:41.199Z,48.80
2023-07-17T06:19:10.146Z,48.80
2023-07-17T06:21:46.634Z,49.00
2023-07-17T06:24:26.730Z,49.60
2023-07-17T06:27:04.273Z,49.90
2023-07-17T06:29:42.209Z,50.10
2023-07-17T06:32:30.595Z,50.20
2023-07-17T06:35:08.145Z,50.30
2023-07-17T06:37:38.101Z,50.60
2023-07-17T06:40:12.552Z,50.70
2023-07-17T06:42:45.500Z,50.70
2023-07-17T06:45:15.801Z,50.90
2023-07-17T06:48:20.271Z,51.00
2023-07-17T06:51:27.765Z,51.20
2023-07-17T06:57:32.076Z,51.40
2023-07-17T07:00:07.425Z,51.70
2023-07-17T07:02:47.157Z,51.80
2023-07-17T07:05:26.962Z,52.10
2023-07-17T07:07:59.815Z,52.30
2023-07-17T07:10:48.032Z,52.40
2023-07-17T07:13:26.468Z,52.70
2023-07-17T07:16:54.937Z,53.00
2023-07-17T07:20:01.481Z,53.20
2023-07-17T07:22:33.751Z,53.60
2023-07-17T07:25:06.776Z,53.80
2023-07-17T07:27:34.341Z,53.80
2023-07-17T07:30:08.787Z,53.80
2023-07-17T07:33:06.292Z,53.80
2023-07-17T07:38:39.009Z,53.20
2023-07-17T07:41:15.192Z,52.80
2023-07-17T07:43:59.728Z,52.70
2023-07-17T07:46:49.701Z,52.90
2023-07-17T07:49:20.330Z,52.50
2023-07-17T07:51:53.495Z,52.60
2023-07-17T07:55:02.547Z,52.60
2023-07-17T07:57:34.723Z,52.90
2023-07-17T08:00:27.927Z,52.90
2023-07-17T08:03:13.244Z,53.10
2023-07-17T08:05:47.823Z,53.30
2023-07-17T08:08:18.900Z,53.60
2023-07-17T08:11:27.776Z,53.90
2023-07-17T08:14:14.253Z,54.10
2023-07-17T08:17:05.269Z,54.00
2023-07-17T08:19:44.248Z,53.80
2023-07-17T08:22:14.096Z,53.80
2023-07-17T08:25:04.485Z,53.80
2023-07-17T08:27:32.893Z,54.00
2023-07-17T08:30:27.213Z,54.10
2023-07-17T08:32:58.403Z,54.40
2023-07-17T08:35:44.682Z,54.50
2023-07-17T08:38:25.769Z,54.60
2023-07-17T08:41:01.395Z,54.70
2023-07-17T08:43:39.579Z,54.60
2023-07-17T08:46:14.006Z,54.50
2023-07-17T08:48:57.355Z,54.50
2023-07-17T08:51:30.793Z,54.40
2023-07-17T08:57:11.196Z,53.80
2023-07-17T08:59:47.417Z,53.60
2023-07-17T09:02:23.485Z,53.50
2023-07-17T09:04:53.885Z,53.50
2023-07-17T09:07:30.083Z,53.50
2023-07-17T09:10:23.939Z,53.50
2023-07-17T09:13:02.853Z,53.50
2023-07-17T09:15:33.652Z,53.40
2023-07-17T09:18:10.403Z,53.30
2023-07-17T09:20:43.721Z,53.10
2023-07-17T09:23:20.585Z,53.00
2023-07-17T09:25:51.110Z,52.60
2023-07-17T09:28:29.460Z,52.20
2023-07-17T09:31:04.021Z,52.10
2023-07-17T09:33:43.125Z,52.10
2023-07-17T09:37:16.169Z,52.20
2023-07-17T09:39:45.528Z,52.10
2023-07-17T09:42:28.844Z,51.70
2023-07-17T09:44:58.807Z,51.00
2023-07-17T09:47:39.743Z,50.40
2023-07-17T09:50:09.329Z,50.30
2023-07-17T09:52:51.350Z,50.20
2023-07-17T09:55:47.323Z,50.00
2023-07-17T09:58:33.375Z,48.60
2023-07-17T10:02:04.678Z,47.30
2023-07-17T10:05:10.183Z,46.30
2023-07-17T10:07:41.491Z,45.40
2023-07-17T10:10:12.986Z,44.90
2023-07-17T10:12:43.888Z,44.50
2023-07-17T10:15:31.253Z,43.60
2023-07-17T10:18:49.031Z,42.60
2023-07-17T10:26:24.506Z,39.60
2023-07-17T10:29:18.769Z,39.70
2023-07-17T10:32:33.205Z,39.70
2023-07-17T10:35:50.073Z,39.50
2023-07-17T10:38:51.806Z,39.00
2023-07-17T10:41:33.661Z,38.30
2023-07-17T10:44:21.237Z,37.60
2023-07-17T10:47:31.355Z,37.00
2023-07-17T10:50:09.555Z,36.60
2023-07-17T10:53:13.569Z,36.50
2023-07-17T10:55:45.220Z,36.30
2023-07-17T10:58:27.469Z,36.20
2023-07-17T11:04:42.119Z,35.90
2023-07-17T11:07:19.342Z,35.70
2023-07-17T11:10:18.450Z,35.60
2023-07-17T11:12:49.470Z,35.50
2023-07-17T11:15:36.173Z,35.50
2023-07-17T11:19:16.742Z,35.50
2023-07-17T11:21:02.685Z,35.10
2023-07-17T11:23:54.684Z,34.70
2023-07-17T11:26:33.981Z,34.50
2023-07-17T11:29:29.556Z,34.50
2023-07-17T11:32:24.169Z,34.60
2023-07-17T11:35:02.577Z,34.60
2023-07-17T11:41:16.326Z,34.70
2023-07-17T11:44:11.482Z,34.60
2023-07-17T11:47:06.293Z,34.70
2023-07-17T11:49:44.794Z,34.70
2023-07-17T11:52:41.236Z,34.70
2023-07-17T11:55:51.716Z,34.50
2023-07-17T11:58:37.838Z,34.20
2023-07-17T12:01:16.821Z,34.20
2023-07-17T12:03:58.868Z,34.00
2023-07-17T12:06:37.036Z,33.70
2023-07-17T12:09:05.525Z,33.70
2023-07-17T12:11:37.363Z,33.50
2023-07-17T12:14:16.855Z,33.50
2023-07-17T12:16:51.371Z,33.50
2023-07-17T12:19:29.931Z,33.30
2023-07-17T12:21:59.727Z,33.20
2023-07-17T12:25:00.340Z,33.20
2023-07-17T12:27:30.403Z,33.20
2023-07-17T12:30:22.673Z,32.90
2023-07-17T12:33:13.531Z,32.90
2023-07-17T12:36:00.348Z,32.80
2023-07-17T12:38:27.801Z,32.60
2023-07-17T12:41:12.779Z,32.60
2023-07-17T12:43:50.374Z,32.40
2023-07-17T12:46:40.576Z,32.30
2023-07-17T12:49:14.627Z,32.40
2023-07-17T12:51:48.979Z,32.60
2023-07-17T12:54:20.048Z,32.70
2023-07-17T12:56:50.152Z,32.70
2023-07-17T12:59:20.576Z,32.70
2023-07-17T13:02:20.024Z,32.70
2023-07-17T13:04:53.121Z,32.50
2023-07-17T13:07:23.714Z,32.50
2023-07-17T13:12:49.114Z,32.60
2023-07-17T13:15:31.544Z,32.60
2023-07-17T13:18:09.324Z,32.90
2023-07-17T13:20:36.930Z,32.90
2023-07-17T13:23:07.672Z,32.90
2023-07-17T13:25:38.070Z,32.90
2023-07-17T13:28:09.650Z,32.90
2023-07-17T13:30:45.125Z,32.90
2023-07-17T13:33:30.578Z,32.90
2023-07-17T13:36:13.999Z,33.00
2023-07-17T13:38:47.121Z,33.00
2023-07-17T13:42:00.123Z,32.90
2023-07-17T13:44:35.188Z,32.70
2023-07-17T13:47:10.068Z,32.60
2023-07-17T13:49:41.837Z,32.70
2023-07-17T13:52:12.357Z,32.70
2023-07-17T13:54:46.012Z,32.70
2023-07-17T13:57:20.221Z,32.70
2023-07-17T14:00:00.757Z,32.80
2023-07-17T14:03:04.629Z,32.90
2023-07-17T14:05:40.269Z,32.80
2023-07-17T14:08:08.104Z,32.60
2023-07-17T14:10:47.986Z,32.50
2023-07-17T14:13:22.490Z,32.50
2023-07-17T14:16:12.115Z,32.50
2023-07-17T14:18:39.562Z,32.30
2023-07-17T14:24:35.279Z,32.20
2023-07-17T14:27:08.032Z,32.10
2023-07-17T14:36:05.550Z,31.70
2023-07-17T14:38:05.652Z,31.40
2023-07-17T14:40:56.400Z,31.20
2023-07-17T14:43:27.746Z,31.10
2023-07-17T14:45:58.539Z,30.90
2023-07-17T14:48:33.637Z,30.90
2023-07-17T14:51:28.713Z,30.90
2023-07-17T14:54:03.017Z,30.80
2023-07-17T14:56:56.566Z,30.60
2023-07-17T14:59:24.120Z,30.30
2023-07-17T15:02:01.178Z,29.90
2023-07-17T15:04:38.054Z,29.80
2023-07-17T15:07:22.966Z,29.60
2023-07-17T15:10:18.826Z,29.20
2023-07-17T15:12:55.366Z,28.70
2023-07-17T15:15:29.128Z,28.40
2023-07-17T15:21:06.821Z,28.20
2023-07-17T15:23:34.657Z,28.10
2023-07-17T15:26:04.653Z,28.00
2023-07-17T15:28:35.354Z,27.90
2023-07-17T15:31:03.064Z,27.60
2023-07-17T15:33:31.111Z,27.30
2023-07-17T15:36:17.129Z,27.00
2023-07-17T15:38:53.570Z,27.00
2023-07-17T15:41:21.865Z,26.80
2023-07-17T15:43:59.475Z,26.60
2023-07-17T15:46:30.223Z,26.50
2023-07-17T15:49:03.928Z,26.30
2023-07-17T15:51:46.121Z,26.10
2023-07-17T15:54:13.630Z,25.90
2023-07-17T15:56:41.527Z,25.80
2023-07-17T15:59:09.605Z,25.70
2023-07-17T16:01:59.599Z,25.60
2023-07-17T16:04:29.580Z,25.40
2023-07-17T16:06:59.236Z,25.40
2023-07-17T16:09:27.467Z,25.40
2023-07-17T16:12:05.153Z,25.50
2023-07-17T16:14:33.073Z,25.40
2023-07-17T16:17:06.226Z,25.00
2023-07-17T16:19:39.194Z,24.60
2023-07-17T16:22:10.049Z,24.20
2023-07-17T16:24:47.335Z,23.90
2023-07-17T16:27:20.818Z,23.80
2023-07-17T16:29:56.037Z,23.70
2023-07-17T16:32:31.209Z,23.80
2023-07-17T16:35:10.732Z,23.80
2023-07-17T16:37:39.566Z,23.70
2023-07-17T16:40:09.531Z,23.70
2023-07-17T16:42:41.267Z,23.70
2023-07-17T16:45:11.828Z,23.90
2023-07-17T16:47:39.808Z,23.80
2023-07-17T16:50:33.152Z,23.90
2023-07-17T16:53:00.673Z,23.90
2023-07-17T16:55:39.845Z,24.00
2023-07-17T16:58:21.578Z,24.10
2023-07-17T17:00:53.241Z,23.90
2023-07-17T17:03:31.888Z,24.00
2023-07-17T17:06:05.313Z,23.90
2023-07-17T17:08:53.190Z,23.80
2023-07-17T17:11:33.832Z,23.90
2023-07-17T17:14:04.437Z,23.80
2023-07-17T17:16:31.960Z,23.80
2023-07-17T17:19:02.586Z,23.80
2023-07-17T17:21:30.802Z,23.80
2023-07-17T17:24:01.362Z,23.70
2023-07-17T17:26:32.359Z,23.70
2023-07-17T17:29:08.988Z,23.70
2023-07-17T17:31:39.684Z,23.60
2023-07-17T17:34:07.701Z,23.50
2023-07-17T17:36:41.786Z,23.60
2023-07-17T17:39:09.593Z,23.60
2023-07-17T17:41:44.455Z,23.60
2023-07-17T17:44:14.797Z,23.70
2023-07-17T17:46:47.058Z,23.60
2023-07-17T17:49:14.839Z,23.70
2023-07-17T17:51:42.140Z,23.60
2023-07-17T17:54:12.870Z,23.60
2023-07-17T17:56:47.440Z,23.70
2023-07-17T17:59:18.486Z,23.60
2023-07-17T18:01:45.922Z,23.70
2023-07-17T18:04:14.152Z,23.60
2023-07-17T18:06:50.090Z,23.80
2023-07-17T18:09:17.931Z,23.90
2023-07-17T18:15:23.221Z,23.70
2023-07-17T18:17:43.667Z,23.40
2023-07-17T18:20:12.135Z,23.30
2023-07-17T18:22:40.672Z,23.20
2023-07-17T18:25:13.241Z,23.00
2023-07-17T18:27:41.021Z,22.90
2023-07-17T18:30:12.932Z,22.70
2023-07-17T18:32:40.886Z,22.50
2023-07-17T18:35:08.929Z,22.30
2023-07-17T18:37:37.288Z,22.20
2023-07-17T18:40:10.307Z,22.00
2023-07-17T18:42:39.546Z,21.90
2023-07-17T18:45:08.739Z,21.70
2023-07-17T18:47:36.672Z,21.50
2023-07-17T18:50:10.332Z,21.50
2023-07-17T18:52:38.208Z,21.50
2023-07-17T18:55:09.928Z,21.30
2023-07-17T18:57:37.859Z,21.30
2023-07-17T19:00:20.341Z,21.20
2023-07-17T19:02:57.769Z,21.10
2023-07-17T19:05:25.306Z,21.10
2023-07-17T19:07:56.684Z,20.90
2023-07-17T19:10:24.465Z,20.90
2023-07-17T19:12:52.315Z,20.90
2023-07-17T19:15:27.752Z,20.80
2023-07-17T19:17:56.067Z,20.90
2023-07-17T19:20:23.450Z,20.80
2023-07-17T19:22:54.387Z,20.80
2023-07-17T19:25:22.082Z,20.70
2023-07-17T19:27:53.174Z,20.70
2023-07-17T19:30:26.339Z,20.60
2023-07-17T19:32:57.198Z,20.60
2023-07-17T19:35:25.372Z,20.60
2023-07-17T19:37:52.626Z,20.70
2023-07-17T19:40:22.853Z,20.50
2023-07-17T19:42:53.124Z,20.60
2023-07-17T19:45:24.086Z,20.60
2023-07-17T19:48:01.258Z,20.60
2023-07-17T19:50:28.960Z,20.60
2023-07-17T19:52:56.589Z,20.60
2023-07-17T19:55:29.146Z,20.70
2023-07-17T19:58:00.043Z,20.60
2023-07-17T20:00:35.077Z,20.60
2023-07-17T20:03:06.127Z,20.50
2023-07-17T20:05:33.778Z,20.50
2023-07-17T20:08:06.341Z,20.50
2023-07-17T20:10:37.617Z,20.50
2023-07-17T20:13:05.932Z,20.50
2023-07-17T20:15:34.403Z,20.60
2023-07-17T20:18:03.194Z,20.50
2023-07-17T20:20:35.827Z,20.60
2023-07-17T20:23:05.565Z,20.60
2023-07-17T20:25:40.142Z,20.70
2023-07-17T20:28:13.096Z,20.70
2023-07-17T20:30:40.648Z,20.80
2023-07-17T20:33:10.673Z,20.80
2023-07-17T20:35:43.743Z,20.90
2023-07-17T20:38:11.715Z,21.00
2023-07-17T20:40:40.646Z,21.00
2023-07-17T20:43:10.784Z,21.00
2023-07-17T20:45:49.504Z,21.10
2023-07-17T20:48:21.363Z,20.90
2023-07-17T20:51:26.425Z,20.90
2023-07-17T20:53:54.483Z,20.90
2023-07-17T20:56:28.492Z,20.90
2023-07-17T20:59:04.370Z,20.80
2023-07-17T21:01:44.200Z,20.80
2023-07-17T21:04:12.455Z,20.80
2023-07-17T21:06:47.026Z,20.70
2023-07-17T21:09:17.806Z,20.70
2023-07-17T21:11:48.395Z,20.50
2023-07-17T21:14:24.541Z,20.50
2023-07-17T21:16:52.014Z,20.40
2023-07-17T21:19:19.731Z,20.30
2023-07-17T21:21:56.149Z,20.30
2023-07-17T21:24:32.566Z,20.20
2023-07-17T21:27:01.385Z,20.00
2023-07-17T21:29:33.713Z,20.00
2023-07-17T21:32:09.843Z,19.90
2023-07-17T21:34:37.863Z,19.90
2023-07-17T21:37:13.181Z,20.00
2023-07-17T21:39:44.479Z,19.90
2023-07-17T21:42:26.050Z,19.90
2023-07-17T21:44:53.580Z,19.90
2023-07-17T21:47:24.962Z,19.80
2023-07-17T21:49:52.843Z,19.80
2023-07-17T21:52:22.991Z,19.90
2023-07-17T21:54:50.299Z,19.80
2023-07-17T21:57:25.418Z,19.80
2023-07-17T21:59:58.815Z,19.80
2023-07-17T22:02:39.326Z,19.80
2023-07-17T22:05:07.720Z,19.70
2023-07-17T22:07:36.035Z,19.90
2023-07-17T22:10:06.890Z,19.80
2023-07-17T22:12:41.586Z,19.70
2023-07-17T22:15:13.074Z,19.80
2023-07-17T22:17:43.704Z,19.80
2023-07-17T22:20:15.705Z,19.90
2023-07-17T22:22:49.809Z,19.90
2023-07-17T22:25:19.049Z,20.00
2023-07-17T22:27:57.616Z,19.90
2023-07-17T22:30:25.943Z,20.00
2023-07-17T22:32:53.900Z,20.10
2023-07-17T22:35:27.279Z,20.00
2023-07-17T22:37:54.791Z,19.90
2023-07-17T22:40:22.748Z,20.00
2023-07-17T22:42:50.772Z,20.00
2023-07-17T22:45:26.471Z,20.10
2023-07-17T22:48:12.115Z,20.10
2023-07-17T22:50:42.220Z,20.00
2023-07-17T22:53:09.598Z,20.00
2023-07-17T22:55:50.637Z,20.00
2023-07-17T22:58:32.887Z,20.00
2023-07-17T23:01:10.062Z,20.00
2023-07-17T23:03:38.348Z,19.90
2023-07-17T23:06:07.168Z,19.80
2023-07-17T23:08:36.108Z,19.90
2023-07-17T23:11:13.573Z,19.70
2023-07-17T23:13:41.612Z,19.70
2023-07-17T23:16:12.019Z,19.50
2023-07-17T23:18:42.201Z,19.50
2023-07-17T23:21:12.777Z,19.40
2023-07-17T23:23:40.185Z,19.40
2023-07-17T23:26:10.336Z,19.40
2023-07-17T23:28:41.750Z,19.50
2023-07-17T23:31:12.368Z,19.40
2023-07-17T23:33:40.660Z,19.50
2023-07-17T23:36:08.940Z,19.50
2023-07-17T23:38:39.276Z,19.40
2023-07-17T23:41:09.676Z,19.40
2023-07-17T23:43:59.851Z,19.40
2023-07-17T23:46:27.832Z,19.30
2023-07-17T23:48:56.369Z,19.30
2023-07-17T23:51:24.298Z,19.30
2023-07-17T23:53:53.675Z,19.20
2023-07-17T23:56:24.837Z,19.20
2023-07-17T23:59:01.767Z,19.10
